Time;durP1;ratioP1;P1;durP2;ratioP2;P2;SDS_P1;SDS_P2;PMS_P1;PMS_P2;Temp;Humidity;BMP_temperature;BMP_pressure;BME280_temperature;BME280_humidity;BME280_pressure;Samples;Min_cycle;Max_cycle;Signal;HPM_P1;HPM_P2
2021/05/24 00:01:14;;;;;;;;;;;15.40;61.20;;;;;;5034270;28;75801;-64
2021/05/24 00:03:40;;;;;;;;;;;15.40;61.10;;;;;;5032306;28;77632;-64
2021/05/24 00:06:06;;;;;;;;;;;15.40;61.20;;;;;;5034228;28;75166;-65
2021/05/24 00:08:31;;;;;;;;;;;15.30;61.40;;;;;;5032475;28;74671;-65
2021/05/24 00:10:57;;;;;;;;;;;15.30;61.30;;;;;;5034520;28;75720;-67
2021/05/24 00:13:23;;;;;;;;;;;15.20;61.60;;;;;;5031855;28;76497;-68
2021/05/24 00:15:51;;;;;;;;;;;15.20;61.70;;;;;;5032560;28;77553;-64
2021/05/24 00:18:17;;;;;;;;;;;15.20;61.70;;;;;;5034230;28;75233;-69
2021/05/24 00:20:44;;;;;;;;;;;15.20;61.80;;;;;;5033906;28;75026;-66
2021/05/24 00:23:10;;;;;;;;;;;15.20;61.60;;;;;;5032287;28;74698;-66
2021/05/24 00:25:36;;;;;;;;;;;15.20;61.60;;;;;;5032234;28;78251;-65
2021/05/24 00:28:02;;;;;;;;;;;15.20;61.40;;;;;;5031925;28;76441;-67
2021/05/24 00:30:32;;;;;;;;;;;15.20;61.30;;;;;;5032149;28;76100;-66
2021/05/24 00:33:01;;;;;;;;;;;15.10;61.60;;;;;;5032060;28;78703;-68
2021/05/24 00:35:27;;;;;;;;;;;15.10;61.50;;;;;;5034379;28;74529;-73
2021/05/24 00:37:53;;;;;;;;;;;15.20;61.30;;;;;;5031828;28;77351;-76
2021/05/24 00:40:18;;;;;;;;;;;15.20;60.80;;;;;;5032313;28;77774;-66
2021/05/24 00:42:44;;;;;;;;;;;15.20;59.90;;;;;;5032017;28;74991;-75
2021/05/24 00:45:10;;;;;;;;;;;15.20;59.50;;;;;;5033454;28;74471;-73
2021/05/24 00:47:36;;;;;;;;;;;15.20;59.20;;;;;;5033734;28;75078;-66
2021/05/24 00:50:02;;;;;;;;;;;15.20;59.00;;;;;;5033615;28;75196;-67
2021/05/24 00:52:28;;;;;;;;;;;15.20;58.90;;;;;;5033953;28;74511;-64
2021/05/24 00:54:54;;;;;;;;;;;15.20;58.90;;;;;;5033030;28;75811;-67
2021/05/24 00:57:20;;;;;;;;;;;15.20;58.80;;;;;;5031716;28;77256;-68
2021/05/24 00:59:45;;;;;;;;;;;15.10;58.80;;;;;;5031262;28;78097;-75
2021/05/24 01:02:11;;;;;;;;;;;15.20;58.70;;;;;;5031762;28;74645;-74
2021/05/24 01:04:37;;;;;;;;;;;15.10;58.50;;;;;;5031657;28;78156;-69
2021/05/24 01:07:03;;;;;;;;;;;15.10;58.40;;;;;;5033210;28;75056;-68
2021/05/24 01:09:29;;;;;;;;;;;15.10;58.20;;;;;;5031786;28;77305;-67
2021/05/24 01:11:55;;;;;;;;;;;15.20;57.70;;;;;;5032774;28;74709;-65
2021/05/24 01:14:21;;;;;;;;;;;15.10;57.10;;;;;;5033479;28;75204;-65
2021/05/24 01:16:51;;;;;;;;;;;15.10;56.50;;;;;;5032960;28;74514;-76
2021/05/24 01:19:17;;;;;;;;;;;15.00;56.10;;;;;;5033719;28;74452;-75
2021/05/24 01:21:42;;;;;;;;;;;15.00;56.10;;;;;;5031261;28;77117;-65
2021/05/24 01:24:08;;;;;;;;;;;14.90;55.70;;;;;;5031091;28;77127;-66
2021/05/24 01:26:34;;;;;;;;;;;14.90;55.30;;;;;;5033289;28;74569;-73
2021/05/24 01:29:00;;;;;;;;;;;14.90;55.10;;;;;;5032582;28;75454;-65
2021/05/24 01:31:25;;;;;;;;;;;14.90;54.90;;;;;;5031319;28;76662;-65
2021/05/24 01:33:52;;;;;;;;;;;14.90;54.80;;;;;;5031044;28;77441;-65
2021/05/24 01:36:18;;;;;;;;;;;14.90;54.50;;;;;;5031875;28;77281;-72
2021/05/24 01:38:44;;;;;;;;;;;14.90;54.30;;;;;;5038809;27;74603;-70
2021/05/24 01:41:10;;;;;;;;;;;14.90;53.70;;;;;;5040566;28;75723;-73
2021/05/24 01:43:36;;;;;;;;;;;14.90;53.60;;;;;;5049453;28;75294;-70
2021/05/24 01:46:02;;;;;;;;;;;14.80;53.40;;;;;;5033013;28;74563;-71
2021/05/24 01:48:28;;;;;;;;;;;14.80;53.40;;;;;;5032651;28;75202;-75
2021/05/24 01:50:54;;;;;;;;;;;14.80;53.10;;;;;;5034092;28;74483;-73
2021/05/24 01:53:20;;;;;;;;;;;14.80;53.00;;;;;;5052649;27;75185;-74
2021/05/24 01:55:46;;;;;;;;;;;14.80;52.90;;;;;;5051466;28;74500;-75
2021/05/24 01:58:13;;;;;;;;;;;14.70;52.80;;;;;;5052630;27;74468;-67
2021/05/24 02:00:39;;;;;;;;;;;14.80;52.60;;;;;;5053183;27;74427;-73
2021/05/24 02:03:04;;;;;;;;;;;14.70;52.40;;;;;;5052693;27;74524;-69
2021/05/24 02:05:30;;;;;;;;;;;14.80;52.00;;;;;;5051133;28;75714;-68
2021/05/24 02:07:57;;;;;;;;;;;14.70;51.70;;;;;;5051272;28;77828;-71
2021/05/24 02:10:25;;;;;;;;;;;14.70;51.60;;;;;;5053614;27;75632;-67
2021/05/24 02:12:51;;;;;;;;;;;14.70;51.70;;;;;;5056134;28;75201;-72
2021/05/24 02:15:22;;;;;;;;;;;14.60;51.60;;;;;;5055815;27;75354;-73
2021/05/24 02:17:48;;;;;;;;;;;14.70;51.30;;;;;;5054483;28;76606;-69
2021/05/24 02:20:18;;;;;;;;;;;14.70;51.10;;;;;;5054416;28;77337;-74
2021/05/24 02:22:44;;;;;;;;;;;14.70;50.90;;;;;;5053918;28;77136;-73
2021/05/24 02:25:10;;;;;;;;;;;14.70;50.90;;;;;;5056024;27;74989;-69
2021/05/24 02:27:36;;;;;;;;;;;14.60;50.80;;;;;;5055789;27;75566;-70
2021/05/24 02:30:03;;;;;;;;;;;14.60;50.80;;;;;;5054032;28;78509;-71
2021/05/24 02:32:28;;;;;;;;;;;14.60;50.50;;;;;;5053868;28;78182;-66
2021/05/24 02:34:54;;;;;;;;;;;14.60;50.20;;;;;;5054324;28;77517;-64
2021/05/24 02:37:21;;;;;;;;;;;14.60;50.20;;;;;;5054115;28;75517;-63
2021/05/24 02:39:47;;;;;;;;;;;14.50;50.00;;;;;;5054242;28;78772;-64
2021/05/24 02:42:12;;;;;;;;;;;14.50;50.00;;;;;;5053924;28;75818;-70
2021/05/24 02:44:38;;;;;;;;;;;14.50;50.00;;;;;;5055453;27;75166;-64
2021/05/24 02:47:03;;;;;;;;;;;14.50;50.20;;;;;;5055985;28;74542;-63
2021/05/24 02:49:29;;;;;;;;;;;14.50;50.10;;;;;;5055578;27;75606;-64
2021/05/24 02:51:55;;;;;;;;;;;14.50;50.00;;;;;;5054068;28;75295;-63
2021/05/24 02:54:20;;;;;;;;;;;14.50;49.90;;;;;;5055399;27;75185;-64
2021/05/24 02:56:46;;;;;;;;;;;14.50;49.80;;;;;;5055487;27;75319;-65
2021/05/24 02:59:11;;;;;;;;;;;14.40;49.60;;;;;;5055323;28;75565;-67
2021/05/24 03:01:37;;;;;;;;;;;14.40;49.80;;;;;;5055592;27;74524;-66
2021/05/24 03:04:03;;;;;;;;;;;14.40;49.70;;;;;;5053819;28;77386;-64
2021/05/24 03:06:29;;;;;;;;;;;14.40;49.80;;;;;;5054126;28;78199;-67
2021/05/24 03:08:55;;;;;;;;;;;14.40;49.70;;;;;;5053339;28;76332;-61
2021/05/24 03:11:22;;;;;;;;;;;14.30;49.90;;;;;;5053712;28;76586;-67
2021/05/24 03:13:48;;;;;;;;;;;14.30;49.90;;;;;;5054854;28;75312;-69
2021/05/24 03:16:14;;;;;;;;;;;14.30;49.90;;;;;;5055584;27;74917;-66
2021/05/24 03:18:39;;;;;;;;;;;14.30;49.70;;;;;;5053402;28;77758;-64
2021/05/24 03:21:05;;;;;;;;;;;14.30;49.50;;;;;;5053391;27;74459;-71
2021/05/24 03:23:31;;;;;;;;;;;14.20;49.40;;;;;;5053604;28;76559;-69
2021/05/24 03:25:56;;;;;;;;;;;14.30;49.40;;;;;;5054919;28;75324;-74
2021/05/24 03:28:22;;;;;;;;;;;14.30;49.30;;;;;;5053168;28;75356;-71
2021/05/24 03:30:48;;;;;;;;;;;14.30;49.30;;;;;;5054794;27;75069;-72
2021/05/24 03:33:13;;;;;;;;;;;14.30;49.10;;;;;;5054479;27;76807;-66
2021/05/24 03:35:39;;;;;;;;;;;14.20;49.10;;;;;;5054709;27;75020;-66
2021/05/24 03:38:05;;;;;;;;;;;14.20;49.10;;;;;;5054733;27;75436;-67
2021/05/24 03:40:30;;;;;;;;;;;14.30;48.80;;;;;;5054835;27;75627;-66
2021/05/24 03:42:56;;;;;;;;;;;14.30;48.60;;;;;;5053163;28;75428;-65
2021/05/24 03:45:23;;;;;;;;;;;14.30;48.70;;;;;;5052883;28;76225;-69
2021/05/24 03:47:50;;;;;;;;;;;14.30;48.50;;;;;;5054593;27;74508;-72
2021/05/24 03:50:16;;;;;;;;;;;14.20;48.70;;;;;;5053235;28;77282;-69
2021/05/24 03:52:43;;;;;;;;;;;14.20;48.60;;;;;;5054586;27;75211;-68
2021/05/24 03:55:09;;;;;;;;;;;14.20;48.60;;;;;;5054617;28;75757;-67
2021/05/24 03:57:35;;;;;;;;;;;14.20;48.50;;;;;;5054408;27;75571;-71
2021/05/24 04:00:01;;;;;;;;;;;14.20;48.50;;;;;;5054442;27;74834;-71
2021/05/24 04:02:26;;;;;;;;;;;14.20;48.60;;;;;;5054260;28;75519;-71
2021/05/24 04:04:52;;;;;;;;;;;14.10;48.40;;;;;;5054384;27;74826;-67
2021/05/24 04:07:24;;;;;;;;;;;14.10;48.40;;;;;;5054502;28;75200;-65
2021/05/24 04:09:50;;;;;;;;;;;14.10;48.20;;;;;;5052342;28;75382;-63
2021/05/24 04:12:16;;;;;;;;;;;14.00;48.30;;;;;;5053810;27;75587;-64
2021/05/24 04:14:43;;;;;;;;;;;14.00;48.30;;;;;;5054188;28;75770;-74
2021/05/24 04:17:10;;;;;;;;;;;14.00;48.30;;;;;;5052217;28;77399;-73
2021/05/24 04:19:36;;;;;;;;;;;14.00;48.30;;;;;;5052815;28;77253;-66
2021/05/24 04:22:02;;;;;;;;;;;14.00;48.30;;;;;;5048718;27;77057;-70
2021/05/24 04:24:27;;;;;;;;;;;14.00;48.40;;;;;;5047030;28;75202;-74
2021/05/24 04:26:53;;;;;;;;;;;14.00;48.40;;;;;;5031641;28;76379;-67
2021/05/24 04:29:19;;;;;;;;;;;14.00;48.60;;;;;;5047622;28;77077;-66
2021/05/24 04:31:44;;;;;;;;;;;13.90;48.70;;;;;;5054331;28;74569;-75
2021/05/24 04:34:10;;;;;;;;;;;14.00;48.80;;;;;;5051643;27;75931;-71
2021/05/24 04:36:35;;;;;;;;;;;14.00;48.70;;;;;;5037960;28;78441;-67
2021/05/24 04:39:02;;;;;;;;;;;14.00;48.80;;;;;;5033631;28;74513;-66
2021/05/24 04:41:27;;;;;;;;;;;14.00;48.80;;;;;;5033960;28;75561;-65
2021/05/24 04:43:57;;;;;;;;;;;14.00;48.70;;;;;;5033283;28;75214;-65
2021/05/24 04:46:23;;;;;;;;;;;14.00;48.70;;;;;;5033564;28;75496;-65
2021/05/24 04:48:48;;;;;;;;;;;14.00;48.90;;;;;;5033688;28;75109;-78
2021/05/24 04:51:14;;;;;;;;;;;14.00;49.00;;;;;;5033400;28;75096;-77
2021/05/24 04:53:39;;;;;;;;;;;13.90;49.20;;;;;;5037571;27;75093;-73
2021/05/24 04:56:05;;;;;;;;;;;13.90;49.10;;;;;;5040445;28;75654;-77
2021/05/24 04:58:31;;;;;;;;;;;13.90;49.00;;;;;;5032996;28;76303;-76
2021/05/24 05:00:57;;;;;;;;;;;13.90;48.90;;;;;;5032787;28;76001;-75
2021/05/24 05:03:23;;;;;;;;;;;13.90;48.80;;;;;;5033283;28;74489;-77
2021/05/24 05:05:49;;;;;;;;;;;13.80;48.70;;;;;;5033541;28;76465;-75
2021/05/24 05:08:14;;;;;;;;;;;13.90;48.60;;;;;;5033020;28;74490;-63
2021/05/24 05:10:40;;;;;;;;;;;13.90;48.10;;;;;;5032927;28;75261;-64
2021/05/24 05:13:06;;;;;;;;;;;13.90;48.00;;;;;;5031112;28;76471;-65
2021/05/24 05:15:32;;;;;;;;;;;13.90;47.90;;;;;;5031254;28;76236;-64
2021/05/24 05:17:57;;;;;;;;;;;13.90;47.80;;;;;;5031628;28;74511;-66
2021/05/24 05:20:23;;;;;;;;;;;13.90;47.80;;;;;;5033209;28;75743;-65
2021/05/24 05:22:49;;;;;;;;;;;14.00;47.80;;;;;;5032955;28;75089;-66
2021/05/24 05:25:14;;;;;;;;;;;14.00;47.60;;;;;;5031405;28;76201;-64
2021/05/24 05:27:40;;;;;;;;;;;14.10;47.50;;;;;;5033204;28;74612;-64
2021/05/24 05:30:07;;;;;;;;;;;14.10;47.30;;;;;;5032727;28;75010;-64
2021/05/24 05:32:32;;;;;;;;;;;14.20;47.20;;;;;;5031166;28;76392;-64
2021/05/24 05:34:58;;;;;;;;;;;14.30;46.90;;;;;;5031465;28;75972;-64
2021/05/24 05:37:24;;;;;;;;;;;14.40;46.40;;;;;;5032754;28;75166;-65
2021/05/24 05:39:54;;;;;;;;;;;14.40;45.50;;;;;;5031204;28;77337;-64
2021/05/24 05:42:20;;;;;;;;;;;14.40;45.70;;;;;;5032786;28;75294;-64
2021/05/24 05:44:46;;;;;;;;;;;14.40;45.80;;;;;;5031638;28;74956;-64
2021/05/24 05:47:12;;;;;;;;;;;14.40;45.90;;;;;;5032774;28;75148;-64
2021/05/24 05:49:37;;;;;;;;;;;14.50;45.80;;;;;;5032774;28;75252;-77
2021/05/24 05:52:05;;;;;;;;;;;14.60;45.40;;;;;;5032674;28;75737;-66
2021/05/24 05:54:30;;;;;;;;;;;14.60;44.80;;;;;;5032541;28;75187;-71
2021/05/24 05:56:56;;;;;;;;;;;14.70;44.40;;;;;;5031008;28;76386;-65
2021/05/24 05:59:21;;;;;;;;;;;14.80;44.30;;;;;;5030748;28;76510;-65
2021/05/24 06:01:47;;;;;;;;;;;14.90;43.60;;;;;;5032397;28;74983;-67
2021/05/24 06:04:13;;;;;;;;;;;15.00;43.20;;;;;;5032596;28;75141;-70
2021/05/24 06:06:38;;;;;;;;;;;15.00;42.90;;;;;;5030574;28;75760;-70
2021/05/24 06:09:04;;;;;;;;;;;15.00;43.40;;;;;;5031071;28;75193;-72
2021/05/24 06:11:30;;;;;;;;;;;14.90;42.90;;;;;;5029899;28;76834;-70
2021/05/24 06:13:56;;;;;;;;;;;14.90;43.60;;;;;;5031919;28;74651;-67
2021/05/24 06:16:21;;;;;;;;;;;15.00;43.70;;;;;;5032723;27;75230;-69
2021/05/24 06:18:47;;;;;;;;;;;15.00;43.60;;;;;;5032818;28;74699;-69
2021/05/24 06:21:13;;;;;;;;;;;15.00;43.70;;;;;;5042807;28;74667;-69
2021/05/24 06:23:38;;;;;;;;;;;15.00;43.90;;;;;;5048984;28;77086;-70
2021/05/24 06:26:04;;;;;;;;;;;15.10;44.00;;;;;;5034458;28;76455;-70
2021/05/24 06:28:30;;;;;;;;;;;15.10;44.00;;;;;;5029200;28;77200;-71
2021/05/24 06:30:56;;;;;;;;;;;15.30;43.80;;;;;;5031237;28;75313;-71
2021/05/24 06:33:21;;;;;;;;;;;15.50;43.60;;;;;;5031145;28;74814;-69
2021/05/24 06:35:47;;;;;;;;;;;15.50;43.30;;;;;;5031027;28;75239;-70
2021/05/24 06:38:12;;;;;;;;;;;15.60;43.50;;;;;;5031549;28;75154;-71
2021/05/24 06:40:38;;;;;;;;;;;15.50;43.60;;;;;;5031876;28;74573;-68
2021/05/24 06:43:04;;;;;;;;;;;15.60;43.60;;;;;;5030115;28;76433;-73
2021/05/24 06:45:29;;;;;;;;;;;15.50;43.60;;;;;;5029863;28;77859;-69
2021/05/24 06:47:55;;;;;;;;;;;15.40;43.90;;;;;;5032173;28;74354;-69
2021/05/24 06:50:21;;;;;;;;;;;15.40;44.20;;;;;;5030815;28;74831;-70
2021/05/24 06:52:46;;;;;;;;;;;15.40;44.30;;;;;;5031092;28;74523;-70
2021/05/24 06:55:12;;;;;;;;;;;15.40;44.40;;;;;;5031003;28;74538;-69
2021/05/24 06:57:38;;;;;;;;;;;15.40;44.50;;;;;;5033601;28;75092;-70
2021/05/24 07:00:10;;;;;;;;;;;15.40;44.70;;;;;;5033990;28;74514;-69
2021/05/24 07:02:36;;;;;;;;;;;15.40;44.70;;;;;;5034136;28;74979;-69
2021/05/24 07:05:02;;;;;;;;;;;15.40;44.80;;;;;;5032926;28;76710;-70
2021/05/24 07:07:28;;;;;;;;;;;15.40;44.80;;;;;;5034692;28;75913;-69
2021/05/24 07:09:53;;;;;;;;;;;15.40;44.90;;;;;;5033243;28;77468;-68
2021/05/24 07:12:19;;;;;;;;;;;15.40;44.80;;;;;;5034343;28;75114;-69
2021/05/24 07:14:50;;;;;;;;;;;15.50;44.90;;;;;;5032706;28;77495;-70
2021/05/24 07:17:16;;;;;;;;;;;15.60;44.80;;;;;;5032856;28;77485;-70
2021/05/24 07:19:41;;;;;;;;;;;15.60;44.70;;;;;;5032817;28;76405;-71
2021/05/24 07:22:07;;;;;;;;;;;15.70;44.70;;;;;;5034495;28;75137;-70
2021/05/24 07:24:33;;;;;;;;;;;15.70;44.60;;;;;;5032959;28;76794;-70
2021/05/24 07:27:00;;;;;;;;;;;15.80;44.60;;;;;;5034417;28;75130;-70
2021/05/24 07:29:26;;;;;;;;;;;15.90;44.70;;;;;;5032963;28;77523;-69
2021/05/24 07:31:51;;;;;;;;;;;16.00;44.80;;;;;;5032718;28;76930;-70
2021/05/24 07:34:17;;;;;;;;;;;16.10;44.60;;;;;;5032935;28;76337;-69
2021/05/24 07:36:42;;;;;;;;;;;16.20;44.30;;;;;;5036584;27;75933;-70
2021/05/24 07:39:08;;;;;;;;;;;16.30;44.30;;;;;;5032637;28;77156;-70
2021/05/24 07:41:35;;;;;;;;;;;16.30;44.40;;;;;;5040591;28;74557;-70
2021/05/24 07:44:01;;;;;;;;;;;16.40;44.30;;;;;;5036441;27;75243;-70
2021/05/24 07:46:27;;;;;;;;;;;16.40;44.20;;;;;;5033294;28;77295;-70
2021/05/24 07:48:53;;;;;;;;;;;16.40;44.00;;;;;;5041364;28;76260;-70
2021/05/24 07:51:18;;;;;;;;;;;16.40;44.00;;;;;;5052947;28;74618;-70
2021/05/24 07:53:44;;;;;;;;;;;16.50;44.10;;;;;;5051447;28;77312;-69
2021/05/24 07:56:10;;;;;;;;;;;16.50;44.20;;;;;;5053300;27;75329;-71
2021/05/24 07:58:35;;;;;;;;;;;16.60;44.10;;;;;;5052733;27;75023;-70
2021/05/24 08:01:01;;;;;;;;;;;16.80;43.80;;;;;;5052636;28;75023;-70
2021/05/24 08:03:27;;;;;;;;;;;16.90;43.90;;;;;;5051262;28;76022;-71
2021/05/24 08:05:52;;;;;;;;;;;17.00;43.80;;;;;;5050886;28;76335;-71
2021/05/24 08:08:18;;;;;;;;;;;17.20;43.70;;;;;;5051915;27;75783;-71
2021/05/24 08:10:45;;;;;;;;;;;17.30;43.30;;;;;;5052831;27;75518;-71
2021/05/24 08:13:11;;;;;;;;;;;17.30;43.00;;;;;;5051237;28;76075;-70
2021/05/24 08:15:36;;;;;;;;;;;17.30;43.10;;;;;;5050895;28;77078;-70
2021/05/24 08:18:04;;;;;;;;;;;17.20;43.30;;;;;;5052265;27;75679;-70
2021/05/24 08:20:30;;;;;;;;;;;17.30;43.50;;;;;;5050072;28;75284;-71
2021/05/24 08:22:56;;;;;;;;;;;17.30;43.60;;;;;;5051358;28;77390;-70
2021/05/24 08:25:22;;;;;;;;;;;17.40;43.40;;;;;;5051314;28;75254;-70
2021/05/24 08:27:47;;;;;;;;;;;17.50;43.40;;;;;;5052245;27;75041;-70
2021/05/24 08:30:13;;;;;;;;;;;17.60;43.20;;;;;;5051977;28;75090;-70
2021/05/24 08:32:39;;;;;;;;;;;17.80;43.00;;;;;;5051020;28;74758;-71
2021/05/24 08:35:05;;;;;;;;;;;17.80;43.00;;;;;;5052241;27;75115;-70
2021/05/24 08:37:31;;;;;;;;;;;17.90;42.90;;;;;;5051001;28;78137;-70
2021/05/24 08:39:57;;;;;;;;;;;18.00;42.90;;;;;;5050590;28;75760;-71
2021/05/24 08:42:26;;;;;;;;;;;18.00;43.00;;;;;;5050479;28;76899;-71
2021/05/24 08:44:51;;;;;;;;;;;18.00;42.80;;;;;;5052118;27;75681;-70
2021/05/24 08:47:21;;;;;;;;;;;18.00;43.00;;;;;;5052152;27;75244;-70
2021/05/24 08:49:47;;;;;;;;;;;18.20;43.20;;;;;;5049443;28;75114;-70
2021/05/24 08:52:13;;;;;;;;;;;18.40;42.80;;;;;;5051877;28;75821;-70
2021/05/24 08:54:39;;;;;;;;;;;18.60;42.70;;;;;;5053131;27;75198;-71
2021/05/24 08:57:05;;;;;;;;;;;18.70;42.40;;;;;;5048796;27;75780;-70
2021/05/24 08:59:31;;;;;;;;;;;18.90;42.20;;;;;;5049671;27;75988;-70
2021/05/24 09:01:56;;;;;;;;;;;18.90;41.80;;;;;;5050988;27;74942;-71
2021/05/24 09:04:37;;;;;;;;;;;18.90;42.00;;;;;;5051772;27;75058;-70
2021/05/24 09:07:03;;;;;;;;;;;19.00;42.10;;;;;;5051890;27;75906;-70
2021/05/24 09:09:28;;;;;;;;;;;18.90;42.20;;;;;;5051855;27;75657;-71
2021/05/24 09:11:54;;;;;;;;;;;18.90;42.30;;;;;;5050419;27;74662;-70
2021/05/24 09:14:25;;;;;;;;;;;18.90;42.30;;;;;;5049564;28;75914;-69
2021/05/24 09:16:57;;;;;;;;;;;19.00;42.50;;;;;;5049619;28;75246;-70
2021/05/24 09:19:24;;;;;;;;;;;19.00;42.40;;;;;;5049816;27;77267;-70
2021/05/24 09:21:50;;;;;;;;;;;19.10;42.40;;;;;;5049631;28;76600;-70
2021/05/24 09:24:20;;;;;;;;;;;19.20;42.40;;;;;;5050011;28;77374;-70
2021/05/24 09:26:46;;;;;;;;;;;19.20;41.90;;;;;;5049037;28;74752;-74
2021/05/24 09:29:11;;;;;;;;;;;19.30;42.10;;;;;;5050072;28;75228;-72
2021/05/24 09:31:38;;;;;;;;;;;19.20;41.90;;;;;;5041022;27;76083;-70
2021/05/24 09:34:06;;;;;;;;;;;19.30;41.80;;;;;;5053356;28;75805;-70
2021/05/24 09:36:32;;;;;;;;;;;19.30;41.90;;;;;;5051872;28;78405;-71
2021/05/24 09:39:06;;;;;;;;;;;19.40;41.60;;;;;;5051443;28;76758;-69
2021/05/24 09:41:46;;;;;;;;;;;19.40;41.30;;;;;;5052889;28;74570;-70
2021/05/24 09:44:22;;;;;;;;;;;19.50;41.60;;;;;;5052459;28;74996;-69
2021/05/24 09:46:48;;;;;;;;;;;19.60;41.40;;;;;;5052869;28;75008;-71
2021/05/24 09:49:13;;;;;;;;;;;19.70;41.10;;;;;;5050827;28;77294;-71
2021/05/24 09:51:39;;;;;;;;;;;19.80;41.10;;;;;;5052696;28;75141;-71
2021/05/24 09:54:06;;;;;;;;;;;20.10;41.50;;;;;;5051117;28;78093;-71
2021/05/24 09:56:33;;;;;;;;;;;20.40;39.90;;;;;;5051236;28;77620;-70
2021/05/24 09:58:59;;;;;;;;;;;20.50;40.20;;;;;;5044230;27;78192;-70
2021/05/24 10:01:30;;;;;;;;;;;20.70;40.40;;;;;;5049510;28;75718;-70
2021/05/24 10:03:56;;;;;;;;;;;20.70;39.00;;;;;;5032564;28;75277;-70
2021/05/24 10:06:22;;;;;;;;;;;20.50;39.70;;;;;;5032812;28;74596;-68
2021/05/24 10:08:47;;;;;;;;;;;20.50;39.80;;;;;;5030439;28;76785;-69
2021/05/24 10:11:13;;;;;;;;;;;20.60;39.80;;;;;;5031251;28;75370;-69
2021/05/24 10:13:39;;;;;;;;;;;20.60;39.50;;;;;;5044944;27;74708;-70
2021/05/24 10:16:10;;;;;;;;;;;20.60;39.20;;;;;;5031436;28;75284;-71
2021/05/24 10:18:36;;;;;;;;;;;20.90;39.60;;;;;;5030602;28;75176;-71
2021/05/24 10:21:01;;;;;;;;;;;20.90;38.90;;;;;;5028962;28;76174;-72
2021/05/24 10:23:28;;;;;;;;;;;20.70;39.40;;;;;;5030270;28;75546;-72
2021/05/24 10:25:55;;;;;;;;;;;20.80;39.60;;;;;;5031860;28;75243;-70
2021/05/24 10:28:22;;;;;;;;;;;21.00;39.30;;;;;;5030181;28;76995;-71
2021/05/24 10:30:48;;;;;;;;;;;21.40;38.60;;;;;;5030184;28;76768;-71
2021/05/24 10:33:14;;;;;;;;;;;21.60;37.90;;;;;;5034188;28;76836;-70
2021/05/24 10:35:41;;;;;;;;;;;22.00;38.20;;;;;;5033617;28;75357;-69
2021/05/24 10:38:33;;;;;;;;;;;22.60;37.50;;;;;;5035663;27;74714;-70
2021/05/24 10:41:02;;;;;;;;;;;23.00;36.80;;;;;;5037265;28;76642;-69
2021/05/24 10:43:41;;;;;;;;;;;23.40;35.80;;;;;;5076967;27;77999;-68
2021/05/24 10:46:25;;;;;;;;;;;23.30;36.50;;;;;;5082176;27;78267;-69
2021/05/24 10:48:54;;;;;;;;;;;23.40;35.30;;;;;;5052071;28;77307;-70
2021/05/24 10:51:20;;;;;;;;;;;23.40;35.30;;;;;;5053750;28;77800;-68
2021/05/24 10:53:48;;;;;;;;;;;23.60;35.80;;;;;;5054205;27;74560;-69
2021/05/24 10:56:18;;;;;;;;;;;24.00;35.50;;;;;;5054352;27;74670;-70
2021/05/24 10:58:44;;;;;;;;;;;24.10;34.90;;;;;;5052412;27;77697;-69
2021/05/24 11:01:10;;;;;;;;;;;24.20;35.10;;;;;;5052944;27;77228;-73
2021/05/24 11:03:39;;;;;;;;;;;24.40;33.60;;;;;;5052477;27;75505;-72
2021/05/24 11:06:16;;;;;;;;;;;24.50;34.40;;;;;;5053966;27;75305;-71
2021/05/24 11:08:49;;;;;;;;;;;24.90;34.00;;;;;;5052966;28;74692;-70
2021/05/24 11:11:25;;;;;;;;;;;25.50;32.80;;;;;;5033642;28;76365;-71
2021/05/24 11:14:08;;;;;;;;;;;25.50;31.90;;;;;;5033784;28;75109;-72
2021/05/24 11:16:34;;;;;;;;;;;25.10;32.80;;;;;;5038388;27;75871;-71
2021/05/24 11:19:06;;;;;;;;;;;25.30;33.40;;;;;;5040324;28;76974;-71
2021/05/24 11:21:31;;;;;;;;;;;25.90;32.30;;;;;;5032782;28;77699;-70
2021/05/24 11:28:58;;;;;;;;;;;26.50;31.50;;;;;;5031534;28;74861;-69
2021/05/24 11:31:24;;;;;;;;;;;26.30;31.80;;;;;;5035075;28;74540;-70
2021/05/24 11:33:50;;;;;;;;;;;26.10;31.50;;;;;;5032900;28;75399;-70
2021/05/24 11:36:28;;;;;;;;;;;25.50;32.50;;;;;;5033426;28;77149;-70
2021/05/24 11:39:06;;;;;;;;;;;25.10;33.10;;;;;;5032795;28;77217;-70
2021/05/24 11:41:32;;;;;;;;;;;25.00;33.30;;;;;;5034254;28;74545;-70
2021/05/24 11:44:03;;;;;;;;;;;24.90;33.40;;;;;;5032767;28;75441;-71
2021/05/24 11:46:47;;;;;;;;;;;24.80;33.30;;;;;;5035329;27;75826;-70
2021/05/24 11:49:13;;;;;;;;;;;24.70;33.90;;;;;;5044301;27;76823;-70
2021/05/24 11:51:40;;;;;;;;;;;24.60;33.30;;;;;;5040440;28;74598;-72
2021/05/24 11:54:10;;;;;;;;;;;24.30;33.10;;;;;;5054912;28;74492;-71
2021/05/24 11:56:42;;;;;;;;;;;24.10;33.30;;;;;;5054638;28;75939;-71
2021/05/24 11:59:08;;;;;;;;;;;25.90;32.10;;;;;;5041285;28;76316;-71
2021/05/24 12:01:34;;;;;;;;;;;26.80;30.90;;;;;;5038633;28;74616;-69
2021/05/24 12:04:10;;;;;;;;;;;26.90;30.40;;;;;;5054280;28;75249;-70
2021/05/24 12:06:58;;;;;;;;;;;26.40;31.00;;;;;;5043592;28;75644;-70
2021/05/24 12:09:31;;;;;;;;;;;25.90;31.40;;;;;;5032570;28;77669;-69
2021/05/24 12:11:58;;;;;;;;;;;26.10;31.20;;;;;;5033710;28;75761;-69
2021/05/24 12:14:24;;;;;;;;;;;25.90;31.00;;;;;;5034169;28;75036;-70
2021/05/24 12:16:51;;;;;;;;;;;25.30;31.80;;;;;;5034322;28;75341;-70
2021/05/24 12:19:18;;;;;;;;;;;24.80;32.90;;;;;;5033745;28;74971;-70
2021/05/24 12:21:44;;;;;;;;;;;24.30;33.30;;;;;;5033997;28;74459;-69
2021/05/24 12:24:10;;;;;;;;;;;23.90;34.10;;;;;;5032095;28;76245;-70
2021/05/24 12:26:37;;;;;;;;;;;23.80;34.30;;;;;;5034025;28;75060;-69
2021/05/24 12:29:04;;;;;;;;;;;23.90;34.30;;;;;;5032241;28;77848;-70
2021/05/24 12:31:31;;;;;;;;;;;24.10;33.50;;;;;;5031297;28;77385;-68
2021/05/24 12:33:57;;;;;;;;;;;24.30;33.60;;;;;;5033396;28;75320;-69
2021/05/24 12:36:31;;;;;;;;;;;24.50;33.50;;;;;;5031855;28;76115;-69
2021/05/24 12:38:59;;;;;;;;;;;24.70;33.40;;;;;;5033007;28;75271;-69
2021/05/24 12:41:28;;;;;;;;;;;25.00;33.20;;;;;;5031502;28;75906;-73
2021/05/24 12:43:56;;;;;;;;;;;25.00;32.20;;;;;;5033249;28;75415;-72
2021/05/24 12:46:22;;;;;;;;;;;25.10;32.60;;;;;;5048997;28;76000;-71
2021/05/24 12:48:51;;;;;;;;;;;25.50;32.40;;;;;;5050085;28;77247;-70
2021/05/24 12:51:22;;;;;;;;;;;26.30;31.70;;;;;;5051845;28;77681;-72
2021/05/24 12:53:53;;;;;;;;;;;27.30;30.10;;;;;;5053078;27;74456;-72
2021/05/24 12:56:19;;;;;;;;;;;27.50;30.00;;;;;;5053470;28;75211;-72
2021/05/24 12:58:45;;;;;;;;;;;27.20;29.90;;;;;;5051590;28;78032;-70
2021/05/24 13:01:11;;;;;;;;;;;26.90;30.60;;;;;;5051888;27;75452;-70
2021/05/24 13:03:49;;;;;;;;;;;27.60;29.20;;;;;;5053998;28;74947;-70
2021/05/24 13:06:17;;;;;;;;;;;28.40;28.50;;;;;;5053694;28;74484;-70
2021/05/24 13:09:09;;;;;;;;;;;29.00;28.50;;;;;;5053787;28;75785;-68
2021/05/24 13:11:54;;;;;;;;;;;29.80;27.50;;;;;;5050405;28;75280;-69
2021/05/24 13:14:25;;;;;;;;;;;31.30;26.10;;;;;;5053316;27;76801;-70
2021/05/24 13:20:12;;;;;;;;;;;32.40;25.50;;;;;;5041065;28;75079;-69
2021/05/24 13:23:45;;;;;;;;;;;34.50;23.20;;;;;;5051586;28;78701;-70
2021/05/24 13:31:37;;;;;;;;;;;36.00;21.90;;;;;;5029060;28;74580;-69
2021/05/24 13:34:03;;;;;;;;;;;39.50;20.40;;;;;;5032917;28;74638;-70
2021/05/24 13:36:30;;;;;;;;;;;41.10;19.40;;;;;;5046658;28;75466;-70
2021/05/24 13:39:05;;;;;;;;;;;41.10;19.10;;;;;;5052984;28;75318;-70
2021/05/24 13:41:31;;;;;;;;;;;40.20;19.50;;;;;;5051587;28;78365;-71
2021/05/24 13:43:58;;;;;;;;;;;40.10;19.50;;;;;;5052731;28;75076;-72
2021/05/24 13:46:25;;;;;;;;;;;41.00;19.20;;;;;;5052811;28;75452;-69
2021/05/24 13:48:51;;;;;;;;;;;39.70;19.40;;;;;;5051256;28;77292;-71
2021/05/24 13:51:17;;;;;;;;;;;37.90;21.00;;;;;;5052931;28;74572;-70
2021/05/24 13:53:43;;;;;;;;;;;37.50;20.60;;;;;;5051389;28;74705;-72
2021/05/24 13:56:09;;;;;;;;;;;35.60;21.50;;;;;;5052616;28;75135;-70
2021/05/24 13:58:34;;;;;;;;;;;37.30;21.10;;;;;;5052898;28;75194;-70
2021/05/24 14:01:00;;;;;;;;;;;40.20;19.40;;;;;;5052659;28;74660;-69
2021/05/24 14:03:27;;;;;;;;;;;42.90;18.20;;;;;;5052653;28;75159;-69
2021/05/24 14:05:52;;;;;;;;;;;44.80;17.10;;;;;;5051711;27;77124;-69
2021/05/24 14:08:18;;;;;;;;;;;45.00;15.80;;;;;;5055042;28;77514;-69
2021/05/24 14:10:44;;;;;;;;;;;44.90;15.90;;;;;;5056203;27;75632;-70
2021/05/24 14:13:11;;;;;;;;;;;45.70;16.50;;;;;;5054461;28;75585;-70
2021/05/24 14:15:36;;;;;;;;;;;46.60;16.00;;;;;;5054147;28;77542;-70
2021/05/24 14:18:02;;;;;;;;;;;47.40;15.10;;;;;;5056039;28;74547;-70
2021/05/24 14:20:28;;;;;;;;;;;45.50;16.00;;;;;;5054486;28;76437;-71
2021/05/24 14:22:53;;;;;;;;;;;43.80;16.60;;;;;;5054381;28;78044;-71
2021/05/24 14:25:19;;;;;;;;;;;44.40;16.90;;;;;;5055905;27;75046;-71
2021/05/24 14:27:45;;;;;;;;;;;45.20;16.30;;;;;;5054341;28;75436;-71
2021/05/24 14:30:11;;;;;;;;;;;45.40;14.50;;;;;;5055829;27;75184;-71